sensor_id;sensor_type;location;lat;lon;timestamp;P1;durP1;ratioP1;P2;durP2;ratioP2
39772;SDS011;25451;51.960;6.250;2023-04-15T00:00:36;6.85;;;3.30;;
39772;SDS011;25451;51.960;6.250;2023-04-15T00:03:01;10.20;;;3.40;;
39772;SDS011;25451;51.960;6.250;2023-04-15T00:05:28;6.20;;;3.27;;
39772;SDS011;25451;51.960;6.250;2023-04-15T00:07:54;6.80;;;3.58;;
39772;SDS011;25451;51.960;6.250;2023-04-15T00:10:19;8.00;;;3.77;;
39772;SDS011;25451;51.960;6.250;2023-04-15T00:12:45;5.77;;;3.00;;
39772;SDS011;25451;51.960;6.250;2023-04-15T00:15:10;6.83;;;3.30;;
39772;SDS011;25451;51.960;6.250;2023-04-15T00:17:36;7.75;;;3.78;;
39772;SDS011;25451;51.960;6.250;2023-04-15T00:20:03;5.65;;;3.35;;
39772;SDS011;25451;51.960;6.250;2023-04-15T00:22:30;7.05;;;3.60;;
39772;SDS011;25451;51.960;6.250;2023-04-15T00:24:56;6.95;;;3.70;;
39772;SDS011;25451;51.960;6.250;2023-04-15T00:27:22;7.47;;;3.27;;
39772;SDS011;25451;51.960;6.250;2023-04-15T00:29:47;6.10;;;3.10;;
39772;SDS011;25451;51.960;6.250;2023-04-15T00:32:12;8.05;;;3.40;;
39772;SDS011;25451;51.960;6.250;2023-04-15T00:34:38;8.60;;;3.50;;
39772;SDS011;25451;51.960;6.250;2023-04-15T00:37:03;8.37;;;4.20;;
39772;SDS011;25451;51.960;6.250;2023-04-15T00:39:28;10.03;;;3.53;;
39772;SDS011;25451;51.960;6.250;2023-04-15T00:41:54;7.43;;;3.30;;
39772;SDS011;25451;51.960;6.250;2023-04-15T00:44:21;7.78;;;3.67;;
39772;SDS011;25451;51.960;6.250;2023-04-15T00:46:46;5.80;;;3.40;;
39772;SDS011;25451;51.960;6.250;2023-04-15T00:49:14;7.60;;;3.50;;
39772;SDS011;25451;51.960;6.250;2023-04-15T00:51:40;6.10;;;3.50;;
39772;SDS011;25451;51.960;6.250;2023-04-15T00:54:05;8.13;;;3.70;;
39772;SDS011;25451;51.960;6.250;2023-04-15T00:56:34;7.43;;;3.85;;
39772;SDS011;25451;51.960;6.250;2023-04-15T00:59:02;7.78;;;3.88;;
39772;SDS011;25451;51.960;6.250;2023-04-15T01:01:27;5.47;;;3.30;;
39772;SDS011;25451;51.960;6.250;2023-04-15T01:03:54;7.73;;;3.83;;
39772;SDS011;25451;51.960;6.250;2023-04-15T01:06:21;6.90;;;3.25;;
39772;SDS011;25451;51.960;6.250;2023-04-15T01:08:47;9.03;;;3.40;;
39772;SDS011;25451;51.960;6.250;2023-04-15T01:11:12;6.07;;;3.17;;
39772;SDS011;25451;51.960;6.250;2023-04-15T01:13:38;6.00;;;3.10;;
39772;SDS011;25451;51.960;6.250;2023-04-15T01:16:04;7.60;;;3.33;;
39772;SDS011;25451;51.960;6.250;2023-04-15T01:18:30;8.35;;;3.67;;
39772;SDS011;25451;51.960;6.250;2023-04-15T01:20:56;7.07;;;3.50;;
39772;SDS011;25451;51.960;6.250;2023-04-15T01:23:22;7.40;;;3.28;;
39772;SDS011;25451;51.960;6.250;2023-04-15T01:25:48;7.90;;;3.23;;
39772;SDS011;25451;51.960;6.250;2023-04-15T01:28:14;6.30;;;3.42;;
39772;SDS011;25451;51.960;6.250;2023-04-15T01:30:40;5.47;;;3.42;;
39772;SDS011;25451;51.960;6.250;2023-04-15T01:33:05;6.43;;;3.57;;
39772;SDS011;25451;51.960;6.250;2023-04-15T01:35:31;7.57;;;3.65;;
39772;SDS011;25451;51.960;6.250;2023-04-15T01:37:58;5.93;;;3.33;;
39772;SDS011;25451;51.960;6.250;2023-04-15T01:40:29;8.68;;;3.45;;
39772;SDS011;25451;51.960;6.250;2023-04-15T01:42:54;7.07;;;3.43;;
39772;SDS011;25451;51.960;6.250;2023-04-15T01:45:20;8.30;;;3.50;;
39772;SDS011;25451;51.960;6.250;2023-04-15T01:47:45;6.77;;;3.50;;
39772;SDS011;25451;51.960;6.250;2023-04-15T01:50:10;5.50;;;3.10;;
39772;SDS011;25451;51.960;6.250;2023-04-15T01:52:35;6.50;;;3.20;;
39772;SDS011;25451;51.960;6.250;2023-04-15T01:55:01;8.02;;;3.70;;
39772;SDS011;25451;51.960;6.250;2023-04-15T01:57:26;7.57;;;3.60;;
39772;SDS011;25451;51.960;6.250;2023-04-15T01:59:52;8.23;;;4.03;;
39772;SDS011;25451;51.960;6.250;2023-04-15T02:02:17;7.20;;;3.53;;
39772;SDS011;25451;51.960;6.250;2023-04-15T02:04:42;6.07;;;3.47;;
39772;SDS011;25451;51.960;6.250;2023-04-15T02:07:08;7.05;;;3.47;;
39772;SDS011;25451;51.960;6.250;2023-04-15T02:09:33;9.30;;;3.67;;
39772;SDS011;25451;51.960;6.250;2023-04-15T02:11:59;7.80;;;3.97;;
39772;SDS011;25451;51.960;6.250;2023-04-15T02:14:24;6.87;;;3.70;;
39772;SDS011;25451;51.960;6.250;2023-04-15T02:16:50;6.17;;;3.60;;
39772;SDS011;25451;51.960;6.250;2023-04-15T02:19:15;7.33;;;3.60;;
39772;SDS011;25451;51.960;6.250;2023-04-15T02:21:40;7.23;;;3.60;;
39772;SDS011;25451;51.960;6.250;2023-04-15T02:24:06;9.15;;;3.70;;
39772;SDS011;25451;51.960;6.250;2023-04-15T02:26:31;9.53;;;3.97;;
39772;SDS011;25451;51.960;6.250;2023-04-15T02:28:57;7.03;;;3.67;;
39772;SDS011;25451;51.960;6.250;2023-04-15T02:31:23;7.13;;;4.00;;
39772;SDS011;25451;51.960;6.250;2023-04-15T02:33:49;7.20;;;3.97;;
39772;SDS011;25451;51.960;6.250;2023-04-15T02:36:14;13.10;;;3.90;;
39772;SDS011;25451;51.960;6.250;2023-04-15T02:38:39;10.93;;;3.73;;
39772;SDS011;25451;51.960;6.250;2023-04-15T02:41:07;7.50;;;3.80;;
39772;SDS011;25451;51.960;6.250;2023-04-15T02:43:33;10.57;;;3.80;;
39772;SDS011;25451;51.960;6.250;2023-04-15T02:45:58;8.55;;;4.30;;
39772;SDS011;25451;51.960;6.250;2023-04-15T02:48:24;7.47;;;3.70;;
39772;SDS011;25451;51.960;6.250;2023-04-15T02:50:50;8.63;;;3.90;;
39772;SDS011;25451;51.960;6.250;2023-04-15T02:53:15;8.53;;;4.23;;
39772;SDS011;25451;51.960;6.250;2023-04-15T02:55:41;9.45;;;4.20;;
39772;SDS011;25451;51.960;6.250;2023-04-15T02:58:06;8.40;;;4.03;;
39772;SDS011;25451;51.960;6.250;2023-04-15T03:00:32;7.95;;;4.22;;
39772;SDS011;25451;51.960;6.250;2023-04-15T03:03:00;8.63;;;3.77;;
39772;SDS011;25451;51.960;6.250;2023-04-15T03:05:29;7.13;;;4.07;;
39772;SDS011;25451;51.960;6.250;2023-04-15T03:07:54;7.20;;;4.22;;
39772;SDS011;25451;51.960;6.250;2023-04-15T03:10:20;9.23;;;3.93;;
39772;SDS011;25451;51.960;6.250;2023-04-15T03:12:45;7.87;;;3.70;;
39772;SDS011;25451;51.960;6.250;2023-04-15T03:15:11;9.00;;;3.97;;
39772;SDS011;25451;51.960;6.250;2023-04-15T03:17:36;6.82;;;3.55;;
39772;SDS011;25451;51.960;6.250;2023-04-15T03:20:02;8.70;;;3.87;;
39772;SDS011;25451;51.960;6.250;2023-04-15T03:22:29;8.77;;;4.15;;
39772;SDS011;25451;51.960;6.250;2023-04-15T03:24:55;10.63;;;4.28;;
39772;SDS011;25451;51.960;6.250;2023-04-15T03:27:20;8.83;;;4.17;;
39772;SDS011;25451;51.960;6.250;2023-04-15T03:29:46;9.47;;;4.83;;
39772;SDS011;25451;51.960;6.250;2023-04-15T03:32:11;8.93;;;4.30;;
39772;SDS011;25451;51.960;6.250;2023-04-15T03:34:36;7.25;;;3.88;;
39772;SDS011;25451;51.960;6.250;2023-04-15T03:37:02;6.77;;;3.73;;
39772;SDS011;25451;51.960;6.250;2023-04-15T03:39:27;7.43;;;4.30;;
39772;SDS011;25451;51.960;6.250;2023-04-15T03:41:52;9.23;;;3.93;;
39772;SDS011;25451;51.960;6.250;2023-04-15T03:44:17;8.00;;;4.10;;
39772;SDS011;25451;51.960;6.250;2023-04-15T03:46:43;9.50;;;4.43;;
39772;SDS011;25451;51.960;6.250;2023-04-15T03:49:09;8.23;;;4.53;;
39772;SDS011;25451;51.960;6.250;2023-04-15T03:51:35;7.93;;;4.32;;
39772;SDS011;25451;51.960;6.250;2023-04-15T03:54:00;8.07;;;4.33;;
39772;SDS011;25451;51.960;6.250;2023-04-15T03:56:26;8.50;;;4.10;;
39772;SDS011;25451;51.960;6.250;2023-04-15T03:58:51;8.07;;;4.05;;
39772;SDS011;25451;51.960;6.250;2023-04-15T04:01:17;9.17;;;4.00;;
39772;SDS011;25451;51.960;6.250;2023-04-15T04:03:42;10.23;;;4.50;;
39772;SDS011;25451;51.960;6.250;2023-04-15T04:06:08;8.47;;;4.20;;
39772;SDS011;25451;51.960;6.250;2023-04-15T04:08:34;7.32;;;4.28;;
39772;SDS011;25451;51.960;6.250;2023-04-15T04:10:59;8.63;;;4.27;;
39772;SDS011;25451;51.960;6.250;2023-04-15T04:13:24;8.00;;;4.40;;
39772;SDS011;25451;51.960;6.250;2023-04-15T04:15:50;10.90;;;4.67;;
39772;SDS011;25451;51.960;6.250;2023-04-15T04:18:15;7.97;;;4.57;;
39772;SDS011;25451;51.960;6.250;2023-04-15T04:20:40;9.48;;;4.28;;
39772;SDS011;25451;51.960;6.250;2023-04-15T04:23:06;8.67;;;4.53;;
39772;SDS011;25451;51.960;6.250;2023-04-15T04:25:31;7.57;;;4.37;;
39772;SDS011;25451;51.960;6.250;2023-04-15T04:27:57;10.67;;;4.60;;
39772;SDS011;25451;51.960;6.250;2023-04-15T04:30:22;8.27;;;4.30;;
39772;SDS011;25451;51.960;6.250;2023-04-15T04:32:48;8.23;;;4.70;;
39772;SDS011;25451;51.960;6.250;2023-04-15T04:35:14;8.48;;;4.38;;
39772;SDS011;25451;51.960;6.250;2023-04-15T04:37:39;9.43;;;4.70;;
39772;SDS011;25451;51.960;6.250;2023-04-15T04:40:05;10.63;;;4.47;;
39772;SDS011;25451;51.960;6.250;2023-04-15T04:42:32;8.77;;;4.80;;
39772;SDS011;25451;51.960;6.250;2023-04-15T04:44:57;9.13;;;4.80;;
39772;SDS011;25451;51.960;6.250;2023-04-15T04:47:22;8.90;;;4.43;;
39772;SDS011;25451;51.960;6.250;2023-04-15T04:49:47;9.20;;;4.40;;
39772;SDS011;25451;51.960;6.250;2023-04-15T04:52:13;9.03;;;4.70;;
39772;SDS011;25451;51.960;6.250;2023-04-15T04:54:38;11.93;;;4.97;;
39772;SDS011;25451;51.960;6.250;2023-04-15T04:57:03;8.60;;;4.73;;
39772;SDS011;25451;51.960;6.250;2023-04-15T04:59:28;8.70;;;4.70;;
39772;SDS011;25451;51.960;6.250;2023-04-15T05:01:54;9.77;;;4.77;;
39772;SDS011;25451;51.960;6.250;2023-04-15T05:04:19;9.13;;;4.53;;
39772;SDS011;25451;51.960;6.250;2023-04-15T05:06:44;9.63;;;4.70;;
39772;SDS011;25451;51.960;6.250;2023-04-15T05:09:10;10.17;;;5.07;;
39772;SDS011;25451;51.960;6.250;2023-04-15T05:11:35;9.17;;;4.67;;
39772;SDS011;25451;51.960;6.250;2023-04-15T05:14:01;8.83;;;4.30;;
39772;SDS011;25451;51.960;6.250;2023-04-15T05:16:26;9.33;;;4.73;;
39772;SDS011;25451;51.960;6.250;2023-04-15T05:18:51;9.30;;;4.70;;
39772;SDS011;25451;51.960;6.250;2023-04-15T05:21:17;9.80;;;5.00;;
39772;SDS011;25451;51.960;6.250;2023-04-15T05:23:42;10.02;;;4.50;;
39772;SDS011;25451;51.960;6.250;2023-04-15T05:26:08;11.23;;;5.10;;
39772;SDS011;25451;51.960;6.250;2023-04-15T05:28:33;10.63;;;5.50;;
39772;SDS011;25451;51.960;6.250;2023-04-15T05:30:58;11.10;;;4.97;;
39772;SDS011;25451;51.960;6.250;2023-04-15T05:33:24;10.63;;;4.97;;
39772;SDS011;25451;51.960;6.250;2023-04-15T05:35:49;8.83;;;5.00;;
39772;SDS011;25451;51.960;6.250;2023-04-15T05:38:15;11.27;;;5.00;;
39772;SDS011;25451;51.960;6.250;2023-04-15T05:40:40;10.87;;;4.97;;
39772;SDS011;25451;51.960;6.250;2023-04-15T05:43:06;10.53;;;4.97;;
39772;SDS011;25451;51.960;6.250;2023-04-15T05:45:31;13.23;;;5.45;;
39772;SDS011;25451;51.960;6.250;2023-04-15T05:47:56;10.82;;;5.20;;
39772;SDS011;25451;51.960;6.250;2023-04-15T05:50:21;10.07;;;5.15;;
39772;SDS011;25451;51.960;6.250;2023-04-15T05:52:47;8.90;;;4.78;;
39772;SDS011;25451;51.960;6.250;2023-04-15T05:55:12;9.15;;;5.00;;
39772;SDS011;25451;51.960;6.250;2023-04-15T05:57:38;11.85;;;5.53;;
39772;SDS011;25451;51.960;6.250;2023-04-15T06:00:03;9.90;;;4.93;;
39772;SDS011;25451;51.960;6.250;2023-04-15T06:02:30;8.55;;;4.82;;
39772;SDS011;25451;51.960;6.250;2023-04-15T06:04:55;9.40;;;5.23;;
39772;SDS011;25451;51.960;6.250;2023-04-15T06:07:21;10.93;;;5.13;;
39772;SDS011;25451;51.960;6.250;2023-04-15T06:09:47;9.40;;;4.78;;
39772;SDS011;25451;51.960;6.250;2023-04-15T06:12:13;10.50;;;5.10;;
39772;SDS011;25451;51.960;6.250;2023-04-15T06:14:38;10.33;;;5.23;;
39772;SDS011;25451;51.960;6.250;2023-04-15T06:17:04;9.37;;;5.00;;
39772;SDS011;25451;51.960;6.250;2023-04-15T06:19:30;10.95;;;5.20;;
39772;SDS011;25451;51.960;6.250;2023-04-15T06:21:55;10.30;;;5.20;;
39772;SDS011;25451;51.960;6.250;2023-04-15T06:24:22;10.85;;;5.40;;
39772;SDS011;25451;51.960;6.250;2023-04-15T06:26:47;9.43;;;4.80;;
39772;SDS011;25451;51.960;6.250;2023-04-15T06:29:12;9.70;;;5.27;;
39772;SDS011;25451;51.960;6.250;2023-04-15T06:31:38;9.53;;;4.73;;
39772;SDS011;25451;51.960;6.250;2023-04-15T06:34:03;11.75;;;5.18;;
39772;SDS011;25451;51.960;6.250;2023-04-15T06:36:29;9.63;;;5.25;;
39772;SDS011;25451;51.960;6.250;2023-04-15T06:38:54;10.20;;;5.20;;
39772;SDS011;25451;51.960;6.250;2023-04-15T06:41:20;9.55;;;5.15;;
39772;SDS011;25451;51.960;6.250;2023-04-15T06:43:46;9.10;;;5.03;;
39772;SDS011;25451;51.960;6.250;2023-04-15T06:46:12;10.35;;;4.85;;
39772;SDS011;25451;51.960;6.250;2023-04-15T06:48:37;11.60;;;5.25;;
39772;SDS011;25451;51.960;6.250;2023-04-15T06:51:02;10.10;;;5.13;;
39772;SDS011;25451;51.960;6.250;2023-04-15T06:53:28;12.00;;;5.33;;
39772;SDS011;25451;51.960;6.250;2023-04-15T06:55:54;10.80;;;5.57;;
39772;SDS011;25451;51.960;6.250;2023-04-15T06:58:19;10.52;;;5.53;;
39772;SDS011;25451;51.960;6.250;2023-04-15T07:00:45;12.87;;;5.70;;
39772;SDS011;25451;51.960;6.250;2023-04-15T07:03:11;12.70;;;6.07;;
39772;SDS011;25451;51.960;6.250;2023-04-15T07:05:37;14.15;;;6.50;;
39772;SDS011;25451;51.960;6.250;2023-04-15T07:08:03;11.50;;;5.77;;
39772;SDS011;25451;51.960;6.250;2023-04-15T07:10:28;12.75;;;6.38;;
39772;SDS011;25451;51.960;6.250;2023-04-15T07:12:54;12.77;;;5.83;;
39772;SDS011;25451;51.960;6.250;2023-04-15T07:15:20;11.50;;;6.05;;
39772;SDS011;25451;51.960;6.250;2023-04-15T07:17:46;12.43;;;5.67;;
39772;SDS011;25451;51.960;6.250;2023-04-15T07:20:11;10.47;;;5.43;;
39772;SDS011;25451;51.960;6.250;2023-04-15T07:22:37;11.35;;;5.65;;
39772;SDS011;25451;51.960;6.250;2023-04-15T07:25:03;11.07;;;5.70;;
39772;SDS011;25451;51.960;6.250;2023-04-15T07:27:29;12.47;;;5.37;;
39772;SDS011;25451;51.960;6.250;2023-04-15T07:29:55;11.55;;;5.38;;
39772;SDS011;25451;51.960;6.250;2023-04-15T07:32:20;12.73;;;5.47;;
39772;SDS011;25451;51.960;6.250;2023-04-15T07:34:45;11.10;;;5.33;;
39772;SDS011;25451;51.960;6.250;2023-04-15T07:37:11;10.73;;;5.10;;
39772;SDS011;25451;51.960;6.250;2023-04-15T07:39:36;13.27;;;5.87;;
39772;SDS011;25451;51.960;6.250;2023-04-15T07:42:02;10.40;;;5.20;;
39772;SDS011;25451;51.960;6.250;2023-04-15T07:44:28;9.95;;;5.32;;
39772;SDS011;25451;51.960;6.250;2023-04-15T07:46:54;10.68;;;5.22;;
39772;SDS011;25451;51.960;6.250;2023-04-15T07:49:20;10.00;;;5.00;;
39772;SDS011;25451;51.960;6.250;2023-04-15T07:51:45;12.20;;;5.20;;
39772;SDS011;25451;51.960;6.250;2023-04-15T07:54:11;10.77;;;4.80;;
39772;SDS011;25451;51.960;6.250;2023-04-15T07:56:36;12.13;;;5.03;;
39772;SDS011;25451;51.960;6.250;2023-04-15T07:59:01;15.53;;;5.63;;
39772;SDS011;25451;51.960;6.250;2023-04-15T08:01:28;11.02;;;5.10;;
39772;SDS011;25451;51.960;6.250;2023-04-15T08:03:55;9.65;;;5.15;;
39772;SDS011;25451;51.960;6.250;2023-04-15T08:06:21;12.02;;;5.20;;
39772;SDS011;25451;51.960;6.250;2023-04-15T08:08:46;9.70;;;4.80;;
39772;SDS011;25451;51.960;6.250;2023-04-15T08:11:12;9.60;;;4.80;;
39772;SDS011;25451;51.960;6.250;2023-04-15T08:13:37;11.85;;;4.80;;
39772;SDS011;25451;51.960;6.250;2023-04-15T08:18:40;9.30;;;4.57;;
39772;SDS011;25451;51.960;6.250;2023-04-15T08:21:05;8.90;;;4.50;;
39772;SDS011;25451;51.960;6.250;2023-04-15T08:23:31;7.43;;;3.67;;
39772;SDS011;25451;51.960;6.250;2023-04-15T08:25:57;6.53;;;3.47;;
39772;SDS011;25451;51.960;6.250;2023-04-15T08:28:22;5.82;;;3.17;;
39772;SDS011;25451;51.960;6.250;2023-04-15T08:30:48;6.47;;;2.90;;
39772;SDS011;25451;51.960;6.250;2023-04-15T08:33:13;8.57;;;2.80;;
39772;SDS011;25451;51.960;6.250;2023-04-15T08:35:38;6.13;;;2.80;;
39772;SDS011;25451;51.960;6.250;2023-04-15T08:38:04;5.43;;;2.50;;
39772;SDS011;25451;51.960;6.250;2023-04-15T08:40:31;6.53;;;2.60;;
39772;SDS011;25451;51.960;6.250;2023-04-15T08:43:04;6.90;;;3.03;;
39772;SDS011;25451;51.960;6.250;2023-04-15T08:45:37;6.63;;;2.90;;
39772;SDS011;25451;51.960;6.250;2023-04-15T08:48:04;6.13;;;2.78;;
39772;SDS011;25451;51.960;6.250;2023-04-15T08:50:30;6.75;;;3.20;;
39772;SDS011;25451;51.960;6.250;2023-04-15T08:52:57;6.68;;;3.40;;
39772;SDS011;25451;51.960;6.250;2023-04-15T08:55:25;6.75;;;3.03;;
39772;SDS011;25451;51.960;6.250;2023-04-15T08:57:57;6.73;;;3.37;;
39772;SDS011;25451;51.960;6.250;2023-04-15T09:00:22;7.07;;;3.35;;
39772;SDS011;25451;51.960;6.250;2023-04-15T09:02:48;7.55;;;3.70;;
39772;SDS011;25451;51.960;6.250;2023-04-15T09:05:14;7.05;;;3.50;;
39772;SDS011;25451;51.960;6.250;2023-04-15T09:07:40;6.47;;;3.75;;
39772;SDS011;25451;51.960;6.250;2023-04-15T09:10:05;6.85;;;3.60;;
39772;SDS011;25451;51.960;6.250;2023-04-15T09:12:35;7.87;;;3.40;;
39772;SDS011;25451;51.960;6.250;2023-04-15T09:15:01;8.50;;;3.78;;
39772;SDS011;25451;51.960;6.250;2023-04-15T09:17:27;7.88;;;3.72;;
39772;SDS011;25451;51.960;6.250;2023-04-15T09:20:08;7.83;;;3.80;;
39772;SDS011;25451;51.960;6.250;2023-04-15T09:22:35;8.63;;;3.50;;
39772;SDS011;25451;51.960;6.250;2023-04-15T09:25:01;8.27;;;3.78;;
39772;SDS011;25451;51.960;6.250;2023-04-15T09:27:27;7.13;;;3.80;;
39772;SDS011;25451;51.960;6.250;2023-04-15T09:29:53;6.57;;;2.83;;
39772;SDS011;25451;51.960;6.250;2023-04-15T09:32:18;5.43;;;2.90;;
39772;SDS011;25451;51.960;6.250;2023-04-15T09:34:45;6.03;;;3.08;;
39772;SDS011;25451;51.960;6.250;2023-04-15T09:37:11;5.20;;;2.72;;
39772;SDS011;25451;51.960;6.250;2023-04-15T09:42:15;8.30;;;3.40;;
39772;SDS011;25451;51.960;6.250;2023-04-15T09:44:41;5.65;;;2.97;;
39772;SDS011;25451;51.960;6.250;2023-04-15T09:47:07;7.03;;;3.20;;
39772;SDS011;25451;51.960;6.250;2023-04-15T09:49:32;5.77;;;2.83;;
39772;SDS011;25451;51.960;6.250;2023-04-15T09:52:01;6.15;;;2.80;;
39772;SDS011;25451;51.960;6.250;2023-04-15T09:54:36;5.65;;;3.00;;
39772;SDS011;25451;51.960;6.250;2023-04-15T09:57:06;8.10;;;2.92;;
39772;SDS011;25451;51.960;6.250;2023-04-15T09:59:34;6.68;;;2.90;;
39772;SDS011;25451;51.960;6.250;2023-04-15T10:02:00;5.70;;;2.93;;
39772;SDS011;25451;51.960;6.250;2023-04-15T10:04:28;6.03;;;2.80;;
39772;SDS011;25451;51.960;6.250;2023-04-15T10:06:54;6.28;;;3.05;;
39772;SDS011;25451;51.960;6.250;2023-04-15T10:09:20;6.45;;;3.00;;
39772;SDS011;25451;51.960;6.250;2023-04-15T10:11:46;5.90;;;2.90;;
39772;SDS011;25451;51.960;6.250;2023-04-15T10:14:13;4.97;;;2.72;;
39772;SDS011;25451;51.960;6.250;2023-04-15T10:16:40;5.80;;;2.60;;
39772;SDS011;25451;51.960;6.250;2023-04-15T10:19:12;5.80;;;2.63;;
39772;SDS011;25451;51.960;6.250;2023-04-15T10:21:40;5.63;;;2.92;;
39772;SDS011;25451;51.960;6.250;2023-04-15T10:24:05;6.00;;;3.00;;
39772;SDS011;25451;51.960;6.250;2023-04-15T10:26:31;4.90;;;2.78;;
39772;SDS011;25451;51.960;6.250;2023-04-15T10:28:56;6.10;;;2.37;;
39772;SDS011;25451;51.960;6.250;2023-04-15T10:31:23;5.25;;;2.83;;
39772;SDS011;25451;51.960;6.250;2023-04-15T10:33:48;5.93;;;2.60;;
39772;SDS011;25451;51.960;6.250;2023-04-15T10:36:14;5.25;;;2.45;;
39772;SDS011;25451;51.960;6.250;2023-04-15T10:38:41;39.83;;;3.70;;
39772;SDS011;25451;51.960;6.250;2023-04-15T10:41:12;5.95;;;2.50;;
39772;SDS011;25451;51.960;6.250;2023-04-15T10:43:46;11.32;;;2.63;;
39772;SDS011;25451;51.960;6.250;2023-04-15T10:46:15;90.50;;;7.15;;
39772;SDS011;25451;51.960;6.250;2023-04-15T10:48:52;4.78;;;2.15;;
39772;SDS011;25451;51.960;6.250;2023-04-15T10:51:28;5.38;;;2.13;;
39772;SDS011;25451;51.960;6.250;2023-04-15T10:53:55;15.45;;;2.50;;
39772;SDS011;25451;51.960;6.250;2023-04-15T10:56:22;9.65;;;2.60;;
39772;SDS011;25451;51.960;6.250;2023-04-15T10:58:47;6.10;;;2.50;;
39772;SDS011;25451;51.960;6.250;2023-04-15T11:01:13;7.87;;;2.43;;
39772;SDS011;25451;51.960;6.250;2023-04-15T11:03:39;5.07;;;1.87;;
39772;SDS011;25451;51.960;6.250;2023-04-15T11:06:06;5.15;;;2.10;;
39772;SDS011;25451;51.960;6.250;2023-04-15T11:11:18;5.63;;;2.00;;
39772;SDS011;25451;51.960;6.250;2023-04-15T11:13:47;4.95;;;2.17;;
39772;SDS011;25451;51.960;6.250;2023-04-15T11:16:14;5.50;;;2.50;;
39772;SDS011;25451;51.960;6.250;2023-04-15T11:18:39;5.90;;;2.57;;
39772;SDS011;25451;51.960;6.250;2023-04-15T11:21:05;5.23;;;2.63;;
39772;SDS011;25451;51.960;6.250;2023-04-15T11:25:58;5.13;;;2.60;;
39772;SDS011;25451;51.960;6.250;2023-04-15T11:28:25;5.22;;;2.42;;
39772;SDS011;25451;51.960;6.250;2023-04-15T11:30:52;5.75;;;2.50;;
39772;SDS011;25451;51.960;6.250;2023-04-15T11:33:18;5.60;;;2.65;;
39772;SDS011;25451;51.960;6.250;2023-04-15T11:35:43;5.38;;;1.90;;
39772;SDS011;25451;51.960;6.250;2023-04-15T11:38:10;3.67;;;1.90;;
39772;SDS011;25451;51.960;6.250;2023-04-15T11:40:37;6.10;;;2.20;;
39772;SDS011;25451;51.960;6.250;2023-04-15T11:43:13;3.60;;;2.10;;
39772;SDS011;25451;51.960;6.250;2023-04-15T11:48:15;4.30;;;2.13;;
39772;SDS011;25451;51.960;6.250;2023-04-15T11:50:41;4.78;;;2.17;;
39772;SDS011;25451;51.960;6.250;2023-04-15T11:53:09;3.88;;;2.22;;
39772;SDS011;25451;51.960;6.250;2023-04-15T11:55:40;5.03;;;2.10;;
39772;SDS011;25451;51.960;6.250;2023-04-15T11:58:09;3.40;;;1.80;;
39772;SDS011;25451;51.960;6.250;2023-04-15T12:00:51;4.25;;;1.80;;
39772;SDS011;25451;51.960;6.250;2023-04-15T12:03:20;3.58;;;1.60;;
39772;SDS011;25451;51.960;6.250;2023-04-15T12:11:17;3.13;;;1.40;;
39772;SDS011;25451;51.960;6.250;2023-04-15T12:13:47;4.38;;;1.38;;
39772;SDS011;25451;51.960;6.250;2023-04-15T12:16:17;2.47;;;1.40;;
39772;SDS011;25451;51.960;6.250;2023-04-15T12:18:44;4.65;;;1.65;;
39772;SDS011;25451;51.960;6.250;2023-04-15T12:21:27;4.83;;;1.60;;
39772;SDS011;25451;51.960;6.250;2023-04-15T12:24:00;3.22;;;1.42;;
39772;SDS011;25451;51.960;6.250;2023-04-15T12:26:36;2.78;;;1.20;;
39772;SDS011;25451;51.960;6.250;2023-04-15T12:29:07;2.83;;;1.23;;
39772;SDS011;25451;51.960;6.250;2023-04-15T12:31:36;2.03;;;1.20;;
39772;SDS011;25451;51.960;6.250;2023-04-15T12:34:10;2.95;;;1.50;;
39772;SDS011;25451;51.960;6.250;2023-04-15T12:36:35;4.13;;;1.40;;
39772;SDS011;25451;51.960;6.250;2023-04-15T12:39:02;4.47;;;1.13;;
39772;SDS011;25451;51.960;6.250;2023-04-15T12:41:28;3.60;;;1.30;;
39772;SDS011;25451;51.960;6.250;2023-04-15T12:43:53;3.83;;;1.50;;
39772;SDS011;25451;51.960;6.250;2023-04-15T12:46:19;2.90;;;1.40;;
39772;SDS011;25451;51.960;6.250;2023-04-15T12:48:44;3.00;;;1.50;;
39772;SDS011;25451;51.960;6.250;2023-04-15T12:51:10;4.32;;;1.40;;
39772;SDS011;25451;51.960;6.250;2023-04-15T12:53:35;4.93;;;1.40;;
39772;SDS011;25451;51.960;6.250;2023-04-15T12:56:01;3.03;;;1.38;;
39772;SDS011;25451;51.960;6.250;2023-04-15T12:58:26;5.55;;;1.30;;
39772;SDS011;25451;51.960;6.250;2023-04-15T13:00:52;2.50;;;1.27;;
39772;SDS011;25451;51.960;6.250;2023-04-15T13:03:17;4.33;;;1.30;;
39772;SDS011;25451;51.960;6.250;2023-04-15T13:05:42;3.57;;;1.27;;
39772;SDS011;25451;51.960;6.250;2023-04-15T13:08:08;4.97;;;1.42;;
39772;SDS011;25451;51.960;6.250;2023-04-15T13:10:34;2.70;;;1.25;;
39772;SDS011;25451;51.960;6.250;2023-04-15T13:13:02;2.33;;;1.20;;
39772;SDS011;25451;51.960;6.250;2023-04-15T13:15:28;3.00;;;1.20;;
39772;SDS011;25451;51.960;6.250;2023-04-15T13:17:54;3.50;;;1.60;;
39772;SDS011;25451;51.960;6.250;2023-04-15T13:20:19;2.87;;;1.20;;
39772;SDS011;25451;51.960;6.250;2023-04-15T13:22:44;4.95;;;1.67;;
39772;SDS011;25451;51.960;6.250;2023-04-15T13:25:10;3.33;;;1.40;;
39772;SDS011;25451;51.960;6.250;2023-04-15T13:27:35;2.03;;;1.27;;
39772;SDS011;25451;51.960;6.250;2023-04-15T13:30:01;2.97;;;1.48;;
39772;SDS011;25451;51.960;6.250;2023-04-15T13:32:27;3.40;;;1.00;;
39772;SDS011;25451;51.960;6.250;2023-04-15T13:34:52;3.47;;;1.10;;
39772;SDS011;25451;51.960;6.250;2023-04-15T13:37:18;2.10;;;0.95;;
39772;SDS011;25451;51.960;6.250;2023-04-15T13:39:44;3.20;;;1.17;;
39772;SDS011;25451;51.960;6.250;2023-04-15T13:42:09;1.35;;;0.90;;
39772;SDS011;25451;51.960;6.250;2023-04-15T13:44:35;1.57;;;0.80;;
39772;SDS011;25451;51.960;6.250;2023-04-15T13:47:00;1.87;;;0.90;;
39772;SDS011;25451;51.960;6.250;2023-04-15T13:49:25;2.97;;;0.90;;
39772;SDS011;25451;51.960;6.250;2023-04-15T13:51:51;2.10;;;0.90;;
39772;SDS011;25451;51.960;6.250;2023-04-15T13:54:16;2.30;;;1.00;;
39772;SDS011;25451;51.960;6.250;2023-04-15T13:56:41;4.10;;;1.00;;
39772;SDS011;25451;51.960;6.250;2023-04-15T13:59:07;1.73;;;0.87;;
39772;SDS011;25451;51.960;6.250;2023-04-15T14:01:33;2.42;;;1.00;;
39772;SDS011;25451;51.960;6.250;2023-04-15T14:03:58;2.47;;;1.10;;
39772;SDS011;25451;51.960;6.250;2023-04-15T14:06:24;4.67;;;1.10;;
39772;SDS011;25451;51.960;6.250;2023-04-15T14:08:51;2.38;;;1.20;;
39772;SDS011;25451;51.960;6.250;2023-04-15T14:11:16;3.28;;;1.10;;
39772;SDS011;25451;51.960;6.250;2023-04-15T14:13:42;2.03;;;1.10;;
39772;SDS011;25451;51.960;6.250;2023-04-15T14:16:07;2.47;;;1.10;;
39772;SDS011;25451;51.960;6.250;2023-04-15T14:18:32;3.07;;;1.13;;
39772;SDS011;25451;51.960;6.250;2023-04-15T14:20:57;4.63;;;1.23;;
39772;SDS011;25451;51.960;6.250;2023-04-15T14:23:23;2.80;;;1.13;;
39772;SDS011;25451;51.960;6.250;2023-04-15T14:25:49;2.80;;;1.10;;
39772;SDS011;25451;51.960;6.250;2023-04-15T14:28:14;2.15;;;1.00;;
39772;SDS011;25451;51.960;6.250;2023-04-15T14:30:40;2.95;;;1.20;;
39772;SDS011;25451;51.960;6.250;2023-04-15T14:33:05;3.00;;;1.20;;
39772;SDS011;25451;51.960;6.250;2023-04-15T14:35:30;3.17;;;1.40;;
39772;SDS011;25451;51.960;6.250;2023-04-15T14:37:56;2.77;;;1.17;;
39772;SDS011;25451;51.960;6.250;2023-04-15T14:40:22;15.80;;;2.50;;
39772;SDS011;25451;51.960;6.250;2023-04-15T14:42:47;3.88;;;1.40;;
39772;SDS011;25451;51.960;6.250;2023-04-15T14:45:13;2.97;;;1.40;;
39772;SDS011;25451;51.960;6.250;2023-04-15T14:47:38;2.60;;;1.20;;
39772;SDS011;25451;51.960;6.250;2023-04-15T14:50:03;2.30;;;1.27;;
39772;SDS011;25451;51.960;6.250;2023-04-15T14:52:30;3.92;;;1.23;;
39772;SDS011;25451;51.960;6.250;2023-04-15T14:55:02;2.45;;;1.10;;
39772;SDS011;25451;51.960;6.250;2023-04-15T14:57:28;4.95;;;1.30;;